sensor_id;sensor_type;location;lat;lon;timestamp;pressure;altitude;pressure_sealevel;temperature;humidity
54628;BME280;40525;55.926;21.066;2022-12-18T00:01:22;102938.87;;;-9.24;72.27
54628;BME280;40525;55.926;21.066;2022-12-18T00:03:51;102934.84;;;-9.27;72.15
54628;BME280;40525;55.926;21.066;2022-12-18T00:06:19;102933.31;;;-9.37;72.01
54628;BME280;40525;55.926;21.066;2022-12-18T00:08:46;102940.59;;;-9.48;72.20
54628;BME280;40525;55.926;21.066;2022-12-18T00:11:16;102932.70;;;-9.51;72.46
54628;BME280;40525;55.926;21.066;2022-12-18T00:13:46;102930.59;;;-9.57;72.53
54628;BME280;40525;55.926;21.066;2022-12-18T00:16:15;102932.14;;;-9.59;72.79
54628;BME280;40525;55.926;21.066;2022-12-18T00:18:45;102940.28;;;-9.58;72.84
54628;BME280;40525;55.926;21.066;2022-12-18T00:21:13;102932.42;;;-9.61;72.87
54628;BME280;40525;55.926;21.066;2022-12-18T00:23:42;102946.75;;;-9.63;72.83
54628;BME280;40525;55.926;21.066;2022-12-18T00:26:15;102954.45;;;-9.68;72.87
54628;BME280;40525;55.926;21.066;2022-12-18T00:28:45;102956.28;;;-9.72;73.02
54628;BME280;40525;55.926;21.066;2022-12-18T00:31:14;102956.33;;;-9.77;73.10
54628;BME280;40525;55.926;21.066;2022-12-18T00:33:43;102957.40;;;-9.80;73.15
54628;BME280;40525;55.926;21.066;2022-12-18T00:36:12;102962.66;;;-9.84;73.13
54628;BME280;40525;55.926;21.066;2022-12-18T00:38:44;102960.19;;;-9.83;73.55
54628;BME280;40525;55.926;21.066;2022-12-18T00:41:12;102967.48;;;-9.82;73.31
54628;BME280;40525;55.926;21.066;2022-12-18T00:43:42;102970.68;;;-9.85;73.31
54628;BME280;40525;55.926;21.066;2022-12-18T00:46:08;102968.05;;;-9.86;73.26
54628;BME280;40525;55.926;21.066;2022-12-18T00:48:35;102967.12;;;-9.87;73.41
54628;BME280;40525;55.926;21.066;2022-12-18T00:51:02;102968.32;;;-9.88;73.48
54628;BME280;40525;55.926;21.066;2022-12-18T00:53:28;102968.53;;;-9.85;73.61
54628;BME280;40525;55.926;21.066;2022-12-18T00:55:55;102971.04;;;-9.80;73.55
54628;BME280;40525;55.926;21.066;2022-12-18T00:58:22;102969.33;;;-9.74;73.57
54628;BME280;40525;55.926;21.066;2022-12-18T01:00:48;102969.09;;;-9.77;73.35
54628;BME280;40525;55.926;21.066;2022-12-18T01:03:15;102971.24;;;-9.77;73.35
54628;BME280;40525;55.926;21.066;2022-12-18T01:05:43;102973.16;;;-9.74;73.56
54628;BME280;40525;55.926;21.066;2022-12-18T01:08:10;102968.64;;;-9.84;73.10
54628;BME280;40525;55.926;21.066;2022-12-18T01:10:43;102977.61;;;-9.89;73.30
54628;BME280;40525;55.926;21.066;2022-12-18T01:13:07;102978.28;;;-9.91;73.63
54628;BME280;40525;55.926;21.066;2022-12-18T01:15:34;102979.61;;;-9.85;73.87
54628;BME280;40525;55.926;21.066;2022-12-18T01:18:01;102987.19;;;-9.86;73.84
54628;BME280;40525;55.926;21.066;2022-12-18T01:20:27;102991.49;;;-9.85;73.92
54628;BME280;40525;55.926;21.066;2022-12-18T01:22:54;102978.58;;;-9.82;73.90
54628;BME280;40525;55.926;21.066;2022-12-18T01:25:20;102981.16;;;-9.87;73.89
54628;BME280;40525;55.926;21.066;2022-12-18T01:27:49;102985.72;;;-9.83;74.14
54628;BME280;40525;55.926;21.066;2022-12-18T01:30:16;102987.55;;;-9.87;74.08
54628;BME280;40525;55.926;21.066;2022-12-18T01:32:42;102981.08;;;-9.88;74.30
54628;BME280;40525;55.926;21.066;2022-12-18T01:35:09;102979.44;;;-9.93;74.18
54628;BME280;40525;55.926;21.066;2022-12-18T01:37:35;102977.28;;;-9.93;74.51
54628;BME280;40525;55.926;21.066;2022-12-18T01:40:02;102978.25;;;-9.86;74.78
54628;BME280;40525;55.926;21.066;2022-12-18T01:42:29;102973.20;;;-9.79;74.75
54628;BME280;40525;55.926;21.066;2022-12-18T01:50:18;102979.30;;;-9.77;74.78
54628;BME280;40525;55.926;21.066;2022-12-18T01:53:15;102981.45;;;-9.77;74.96
54628;BME280;40525;55.926;21.066;2022-12-18T01:55:26;102973.16;;;-9.74;74.87
54628;BME280;40525;55.926;21.066;2022-12-18T01:57:57;102976.27;;;-9.78;74.79
54628;BME280;40525;55.926;21.066;2022-12-18T02:00:26;102973.98;;;-9.80;75.04
54628;BME280;40525;55.926;21.066;2022-12-18T02:02:55;102970.09;;;-9.75;75.14
54628;BME280;40525;55.926;21.066;2022-12-18T02:05:44;102931.98;;;-10.08;74.99
54628;BME280;40525;55.926;21.066;2022-12-18T02:11:36;102979.14;;;-9.62;75.48
54628;BME280;40525;55.926;21.066;2022-12-18T02:14:40;102983.45;;;-9.56;75.48
54628;BME280;40525;55.926;21.066;2022-12-18T02:17:34;102975.78;;;-9.56;75.45
54628;BME280;40525;55.926;21.066;2022-12-18T02:20:06;102969.93;;;-9.60;75.39
54628;BME280;40525;55.926;21.066;2022-12-18T02:22:48;102975.23;;;-9.52;75.76
54628;BME280;40525;55.926;21.066;2022-12-18T02:28:22;102970.59;;;-9.39;76.17
54628;BME280;40525;55.926;21.066;2022-12-18T02:30:53;102979.98;;;-9.21;76.36
54628;BME280;40525;55.926;21.066;2022-12-18T02:33:22;102981.14;;;-9.23;75.81
54628;BME280;40525;55.926;21.066;2022-12-18T02:35:51;102985.92;;;-9.15;76.30
54628;BME280;40525;55.926;21.066;2022-12-18T02:38:20;102986.04;;;-9.14;76.24
54628;BME280;40525;55.926;21.066;2022-12-18T02:40:49;102982.30;;;-9.00;76.54
54628;BME280;40525;55.926;21.066;2022-12-18T02:43:18;102992.26;;;-8.92;76.38
54628;BME280;40525;55.926;21.066;2022-12-18T02:45:53;102990.50;;;-8.93;76.36
54628;BME280;40525;55.926;21.066;2022-12-18T02:48:26;102981.58;;;-8.86;76.65
54628;BME280;40525;55.926;21.066;2022-12-18T02:53:57;102978.11;;;-8.75;76.76
54628;BME280;40525;55.926;21.066;2022-12-18T02:56:34;102986.48;;;-8.71;76.79
54628;BME280;40525;55.926;21.066;2022-12-18T02:59:16;102987.64;;;-8.60;76.97
54628;BME280;40525;55.926;21.066;2022-12-18T03:04:49;102981.53;;;-8.44;76.79
54628;BME280;40525;55.926;21.066;2022-12-18T03:07:27;102982.96;;;-8.41;76.90
54628;BME280;40525;55.926;21.066;2022-12-18T03:09:56;102989.18;;;-8.37;76.94
54628;BME280;40525;55.926;21.066;2022-12-18T03:12:31;102986.16;;;-8.32;77.03
54628;BME280;40525;55.926;21.066;2022-12-18T03:17:44;102978.89;;;-8.26;77.04
54628;BME280;40525;55.926;21.066;2022-12-18T03:20:15;102985.80;;;-8.25;77.09
54628;BME280;40525;55.926;21.066;2022-12-18T03:22:46;102977.48;;;-8.34;77.02
54628;BME280;40525;55.926;21.066;2022-12-18T03:25:16;102982.61;;;-8.34;77.36
54628;BME280;40525;55.926;21.066;2022-12-18T03:27:47;102989.48;;;-8.33;77.34
54628;BME280;40525;55.926;21.066;2022-12-18T03:30:16;102985.94;;;-8.35;77.43
54628;BME280;40525;55.926;21.066;2022-12-18T03:32:53;102988.71;;;-8.32;77.67
54628;BME280;40525;55.926;21.066;2022-12-18T03:35:21;102987.66;;;-8.29;77.89
54628;BME280;40525;55.926;21.066;2022-12-18T03:37:51;102986.96;;;-8.26;77.86
54628;BME280;40525;55.926;21.066;2022-12-18T03:40:20;102986.89;;;-8.21;78.05
54628;BME280;40525;55.926;21.066;2022-12-18T03:42:56;102994.64;;;-8.19;77.95
54628;BME280;40525;55.926;21.066;2022-12-18T03:45:32;102995.34;;;-8.22;78.03
54628;BME280;40525;55.926;21.066;2022-12-18T03:51:05;102991.06;;;-8.03;78.34
54628;BME280;40525;55.926;21.066;2022-12-18T03:53:41;102993.05;;;-7.99;78.20
54628;BME280;40525;55.926;21.066;2022-12-18T03:56:17;102997.98;;;-7.95;78.28
54628;BME280;40525;55.926;21.066;2022-12-18T03:58:46;103000.94;;;-7.89;78.36
54628;BME280;40525;55.926;21.066;2022-12-18T04:01:20;102997.02;;;-7.84;78.46
54628;BME280;40525;55.926;21.066;2022-12-18T04:03:50;103003.05;;;-7.77;78.60
54628;BME280;40525;55.926;21.066;2022-12-18T04:06:18;102996.17;;;-7.71;78.46
54628;BME280;40525;55.926;21.066;2022-12-18T04:08:46;103005.61;;;-7.70;78.51
54628;BME280;40525;55.926;21.066;2022-12-18T04:11:15;103002.86;;;-7.67;78.68
54628;BME280;40525;55.926;21.066;2022-12-18T04:13:43;103004.38;;;-7.57;78.77
54628;BME280;40525;55.926;21.066;2022-12-18T04:16:12;103008.30;;;-7.62;78.54
54628;BME280;40525;55.926;21.066;2022-12-18T04:18:40;103005.84;;;-7.60;78.75
54628;BME280;40525;55.926;21.066;2022-12-18T04:21:07;103001.89;;;-7.55;79.00
54628;BME280;40525;55.926;21.066;2022-12-18T04:23:34;103003.57;;;-7.56;79.00
54628;BME280;40525;55.926;21.066;2022-12-18T04:26:01;103007.62;;;-7.53;79.20
54628;BME280;40525;55.926;21.066;2022-12-18T04:28:36;103008.23;;;-7.43;79.45
54628;BME280;40525;55.926;21.066;2022-12-18T04:31:02;103012.06;;;-7.37;79.44
54628;BME280;40525;55.926;21.066;2022-12-18T04:33:28;103009.59;;;-7.29;79.51
54628;BME280;40525;55.926;21.066;2022-12-18T04:35:56;103011.48;;;-7.26;79.36
54628;BME280;40525;55.926;21.066;2022-12-18T04:38:23;103016.20;;;-7.26;79.43
54628;BME280;40525;55.926;21.066;2022-12-18T04:40:51;103007.53;;;-7.28;79.45
54628;BME280;40525;55.926;21.066;2022-12-18T04:43:19;103009.70;;;-7.27;79.53
54628;BME280;40525;55.926;21.066;2022-12-18T04:45:46;103009.61;;;-7.22;79.72
54628;BME280;40525;55.926;21.066;2022-12-18T04:48:13;103007.52;;;-7.21;79.69
54628;BME280;40525;55.926;21.066;2022-12-18T04:50:39;103013.84;;;-7.16;79.88
54628;BME280;40525;55.926;21.066;2022-12-18T04:53:06;103015.33;;;-7.13;79.96
54628;BME280;40525;55.926;21.066;2022-12-18T04:55:33;103020.94;;;-7.05;80.11
54628;BME280;40525;55.926;21.066;2022-12-18T04:57:59;103027.26;;;-7.00;80.24
54628;BME280;40525;55.926;21.066;2022-12-18T05:00:26;103029.02;;;-6.92;80.36
54628;BME280;40525;55.926;21.066;2022-12-18T05:02:52;103028.59;;;-6.85;80.50
54628;BME280;40525;55.926;21.066;2022-12-18T05:05:19;103023.88;;;-6.79;80.45
54628;BME280;40525;55.926;21.066;2022-12-18T05:07:45;103024.25;;;-6.79;80.40
54628;BME280;40525;55.926;21.066;2022-12-18T05:10:12;103028.88;;;-6.74;80.45
54628;BME280;40525;55.926;21.066;2022-12-18T05:12:38;103032.05;;;-6.71;80.61
54628;BME280;40525;55.926;21.066;2022-12-18T05:15:08;103027.86;;;-6.62;80.82
54628;BME280;40525;55.926;21.066;2022-12-18T05:17:36;103032.32;;;-6.60;80.74
54628;BME280;40525;55.926;21.066;2022-12-18T05:20:03;103035.97;;;-6.56;80.78
54628;BME280;40525;55.926;21.066;2022-12-18T05:22:30;103042.14;;;-6.53;80.84
54628;BME280;40525;55.926;21.066;2022-12-18T05:24:57;103034.85;;;-6.46;80.93
54628;BME280;40525;55.926;21.066;2022-12-18T05:27:23;103031.64;;;-6.36;81.14
54628;BME280;40525;55.926;21.066;2022-12-18T05:29:50;103026.91;;;-6.30;81.16
54628;BME280;40525;55.926;21.066;2022-12-18T05:32:16;103024.91;;;-6.27;81.02
54628;BME280;40525;55.926;21.066;2022-12-18T05:34:43;103032.70;;;-6.25;81.09
54628;BME280;40525;55.926;21.066;2022-12-18T05:37:09;103033.48;;;-6.20;81.19
54628;BME280;40525;55.926;21.066;2022-12-18T05:39:36;103024.59;;;-6.18;81.15
54628;BME280;40525;55.926;21.066;2022-12-18T05:42:02;103022.70;;;-6.21;81.04
54628;BME280;40525;55.926;21.066;2022-12-18T05:44:29;103032.30;;;-6.18;81.02
54628;BME280;40525;55.926;21.066;2022-12-18T05:46:55;103033.07;;;-6.19;81.06
54628;BME280;40525;55.926;21.066;2022-12-18T05:49:22;103027.36;;;-6.22;81.08
54628;BME280;40525;55.926;21.066;2022-12-18T05:51:49;103033.69;;;-6.23;81.13
54628;BME280;40525;55.926;21.066;2022-12-18T05:54:15;103031.28;;;-6.20;81.38
54628;BME280;40525;55.926;21.066;2022-12-18T05:56:42;103041.44;;;-6.15;81.45
54628;BME280;40525;55.926;21.066;2022-12-18T05:59:09;103037.19;;;-6.15;81.30
54628;BME280;40525;55.926;21.066;2022-12-18T06:01:35;103038.09;;;-6.14;81.33
54628;BME280;40525;55.926;21.066;2022-12-18T06:04:02;103035.22;;;-6.12;81.29
54628;BME280;40525;55.926;21.066;2022-12-18T06:06:28;103037.89;;;-6.11;81.25
54628;BME280;40525;55.926;21.066;2022-12-18T06:08:55;103039.73;;;-6.08;81.32
54628;BME280;40525;55.926;21.066;2022-12-18T06:11:24;103040.62;;;-6.07;81.31
54628;BME280;40525;55.926;21.066;2022-12-18T06:13:53;103050.11;;;-6.06;81.34
54628;BME280;40525;55.926;21.066;2022-12-18T06:16:21;103043.79;;;-6.05;81.33
54628;BME280;40525;55.926;21.066;2022-12-18T06:18:47;103045.34;;;-6.07;81.30
54628;BME280;40525;55.926;21.066;2022-12-18T06:21:14;103049.09;;;-6.02;81.53
54628;BME280;40525;55.926;21.066;2022-12-18T06:23:40;103048.68;;;-6.01;81.42
54628;BME280;40525;55.926;21.066;2022-12-18T06:26:10;103052.33;;;-5.98;81.48
54628;BME280;40525;55.926;21.066;2022-12-18T06:28:37;103052.98;;;-5.94;81.48
54628;BME280;40525;55.926;21.066;2022-12-18T06:31:05;103064.92;;;-5.94;81.45
54628;BME280;40525;55.926;21.066;2022-12-18T06:33:32;103070.56;;;-5.93;81.42
54628;BME280;40525;55.926;21.066;2022-12-18T06:36:01;103075.97;;;-5.89;81.60
54628;BME280;40525;55.926;21.066;2022-12-18T06:38:34;103070.83;;;-5.89;81.50
54628;BME280;40525;55.926;21.066;2022-12-18T06:41:10;103072.92;;;-5.90;81.46
54628;BME280;40525;55.926;21.066;2022-12-18T06:43:36;103080.63;;;-5.90;81.48
54628;BME280;40525;55.926;21.066;2022-12-18T06:46:04;103087.52;;;-5.89;81.35
54628;BME280;40525;55.926;21.066;2022-12-18T06:48:32;103085.62;;;-5.84;81.60
54628;BME280;40525;55.926;21.066;2022-12-18T06:50:59;103083.25;;;-5.81;81.52
54628;BME280;40525;55.926;21.066;2022-12-18T06:53:27;103081.45;;;-5.82;81.38
54628;BME280;40525;55.926;21.066;2022-12-18T06:56:02;103076.63;;;-5.84;81.48
54628;BME280;40525;55.926;21.066;2022-12-18T06:58:30;103082.75;;;-5.82;81.44
54628;BME280;40525;55.926;21.066;2022-12-18T07:01:00;103087.98;;;-5.81;81.46
54628;BME280;40525;55.926;21.066;2022-12-18T07:03:27;103098.09;;;-5.84;81.25
54628;BME280;40525;55.926;21.066;2022-12-18T07:05:54;103103.30;;;-5.82;81.56
54628;BME280;40525;55.926;21.066;2022-12-18T07:08:21;103105.59;;;-5.80;81.53
54628;BME280;40525;55.926;21.066;2022-12-18T07:10:48;103102.71;;;-5.78;81.62
54628;BME280;40525;55.926;21.066;2022-12-18T07:13:17;103117.98;;;-5.73;81.60
54628;BME280;40525;55.926;21.066;2022-12-18T07:15:44;103110.57;;;-5.69;81.64
54628;BME280;40525;55.926;21.066;2022-12-18T07:18:10;103120.75;;;-5.70;81.25
54628;BME280;40525;55.926;21.066;2022-12-18T07:20:37;103126.98;;;-5.73;81.25
54628;BME280;40525;55.926;21.066;2022-12-18T07:23:05;103124.91;;;-5.72;81.35
54628;BME280;40525;55.926;21.066;2022-12-18T07:25:36;103129.55;;;-5.73;81.41
54628;BME280;40525;55.926;21.066;2022-12-18T07:28:03;103129.55;;;-5.73;81.37
54628;BME280;40525;55.926;21.066;2022-12-18T07:30:30;103130.98;;;-5.78;81.18
54628;BME280;40525;55.926;21.066;2022-12-18T07:32:56;103133.34;;;-5.75;81.27
54628;BME280;40525;55.926;21.066;2022-12-18T07:35:23;103123.53;;;-5.74;81.25
54628;BME280;40525;55.926;21.066;2022-12-18T07:37:50;103133.59;;;-5.70;81.15
54628;BME280;40525;55.926;21.066;2022-12-18T07:40:16;103134.69;;;-5.73;80.87
54628;BME280;40525;55.926;21.066;2022-12-18T07:42:43;103141.92;;;-5.74;80.98
54628;BME280;40525;55.926;21.066;2022-12-18T07:45:10;103147.16;;;-5.73;80.97
54628;BME280;40525;55.926;21.066;2022-12-18T07:47:36;103128.78;;;-5.79;80.84
54628;BME280;40525;55.926;21.066;2022-12-18T07:50:04;103141.11;;;-5.73;80.94
54628;BME280;40525;55.926;21.066;2022-12-18T07:52:32;103142.49;;;-5.72;80.91
54628;BME280;40525;55.926;21.066;2022-12-18T07:54:58;103140.59;;;-5.67;80.97
54628;BME280;40525;55.926;21.066;2022-12-18T07:57:25;103145.72;;;-5.61;81.06
54628;BME280;40525;55.926;21.066;2022-12-18T07:59:52;103140.94;;;-5.55;81.05
54628;BME280;40525;55.926;21.066;2022-12-18T08:02:18;103149.31;;;-5.51;80.88
54628;BME280;40525;55.926;21.066;2022-12-18T08:04:45;103141.80;;;-5.47;80.83
54628;BME280;40525;55.926;21.066;2022-12-18T08:07:12;103144.82;;;-5.40;80.91
54628;BME280;40525;55.926;21.066;2022-12-18T08:09:39;103147.84;;;-5.32;80.69
54628;BME280;40525;55.926;21.066;2022-12-18T08:12:06;103152.27;;;-5.30;80.73
54628;BME280;40525;55.926;21.066;2022-12-18T08:14:32;103146.44;;;-5.27;80.55
54628;BME280;40525;55.926;21.066;2022-12-18T08:16:59;103146.34;;;-5.28;80.31
54628;BME280;40525;55.926;21.066;2022-12-18T08:19:25;103155.13;;;-5.25;80.43
54628;BME280;40525;55.926;21.066;2022-12-18T08:21:52;103148.60;;;-5.26;80.22
54628;BME280;40525;55.926;21.066;2022-12-18T08:24:18;103153.96;;;-5.30;80.13
54628;BME280;40525;55.926;21.066;2022-12-18T08:26:45;103145.16;;;-5.27;80.42
54628;BME280;40525;55.926;21.066;2022-12-18T08:29:12;103153.02;;;-5.24;80.44
54628;BME280;40525;55.926;21.066;2022-12-18T08:31:39;103166.39;;;-5.23;80.39
54628;BME280;40525;55.926;21.066;2022-12-18T08:34:05;103161.81;;;-5.20;80.32
54628;BME280;40525;55.926;21.066;2022-12-18T08:36:32;103173.29;;;-5.22;80.32
54628;BME280;40525;55.926;21.066;2022-12-18T08:38:58;103157.73;;;-5.17;80.50
54628;BME280;40525;55.926;21.066;2022-12-18T08:41:26;103159.38;;;-5.11;80.69
54628;BME280;40525;55.926;21.066;2022-12-18T08:43:53;103169.13;;;-5.05;80.63
54628;BME280;40525;55.926;21.066;2022-12-18T08:46:40;103168.34;;;-5.04;80.45
54628;BME280;40525;55.926;21.066;2022-12-18T08:49:08;103171.77;;;-5.12;80.14
54628;BME280;40525;55.926;21.066;2022-12-18T08:51:36;103172.33;;;-5.09;80.32
54628;BME280;40525;55.926;21.066;2022-12-18T08:54:04;103174.06;;;-5.01;80.49
54628;BME280;40525;55.926;21.066;2022-12-18T08:56:31;103163.95;;;-4.98;80.48
54628;BME280;40525;55.926;21.066;2022-12-18T08:58:59;103166.63;;;-4.97;80.38
54628;BME280;40525;55.926;21.066;2022-12-18T09:01:26;103171.61;;;-4.92;80.51
54628;BME280;40525;55.926;21.066;2022-12-18T09:03:52;103171.90;;;-4.87;80.48
54628;BME280;40525;55.926;21.066;2022-12-18T09:06:20;103177.80;;;-4.81;80.56
54628;BME280;40525;55.926;21.066;2022-12-18T09:08:49;103178.98;;;-4.68;80.63
54628;BME280;40525;55.926;21.066;2022-12-18T09:11:22;103172.33;;;-4.64;80.46
54628;BME280;40525;55.926;21.066;2022-12-18T09:13:51;103161.95;;;-4.58;80.53
54628;BME280;40525;55.926;21.066;2022-12-18T09:16:18;103148.86;;;-4.54;80.72
54628;BME280;40525;55.926;21.066;2022-12-18T09:18:46;103161.75;;;-4.46;80.72
54628;BME280;40525;55.926;21.066;2022-12-18T09:21:20;103152.05;;;-4.35;80.83
54628;BME280;40525;55.926;21.066;2022-12-18T09:23:51;103162.30;;;-4.28;80.61
54628;BME280;40525;55.926;21.066;2022-12-18T09:26:18;103167.92;;;-4.27;80.47
54628;BME280;40525;55.926;21.066;2022-12-18T09:28:46;103160.78;;;-4.25;80.65
54628;BME280;40525;55.926;21.066;2022-12-18T09:31:13;103152.19;;;-4.17;80.76
54628;BME280;40525;55.926;21.066;2022-12-18T09:33:41;103167.88;;;-4.13;80.81
54628;BME280;40525;55.926;21.066;2022-12-18T09:36:10;103159.59;;;-4.07;80.93
54628;BME280;40525;55.926;21.066;2022-12-18T09:38:38;103154.63;;;-4.04;80.84
54628;BME280;40525;55.926;21.066;2022-12-18T09:41:25;103152.78;;;-3.98;80.94
54628;BME280;40525;55.926;21.066;2022-12-18T09:44:01;103159.69;;;-3.97;81.13
54628;BME280;40525;55.926;21.066;2022-12-18T09:46:36;103170.26;;;-3.93;81.10
54628;BME280;40525;55.926;21.066;2022-12-18T09:49:07;103165.57;;;-3.92;81.25
54628;BME280;40525;55.926;21.066;2022-12-18T09:51:39;103167.12;;;-3.87;81.44
54628;BME280;40525;55.926;21.066;2022-12-18T09:54:23;103166.71;;;-3.86;81.14
54628;BME280;40525;55.926;21.066;2022-12-18T09:56:52;103168.14;;;-3.83;81.31
54628;BME280;40525;55.926;21.066;2022-12-18T09:59:24;103167.85;;;-3.81;81.90
54628;BME280;40525;55.926;21.066;2022-12-18T10:01:52;103168.31;;;-3.72;81.91
54628;BME280;40525;55.926;21.066;2022-12-18T10:04:19;103178.33;;;-3.62;82.00
54628;BME280;40525;55.926;21.066;2022-12-18T10:06:59;103161.96;;;-3.54;82.41
54628;BME280;40525;55.926;21.066;2022-12-18T10:09:53;103162.98;;;-3.26;84.94
54628;BME280;40525;55.926;21.066;2022-12-18T10:15:19;103158.30;;;-1.60;89.55
54628;BME280;40525;55.926;21.066;2022-12-18T10:18:10;103152.72;;;-1.09;88.19
54628;BME280;40525;55.926;21.066;2022-12-18T10:20:44;103161.78;;;-0.67;87.67
54628;BME280;40525;55.926;21.066;2022-12-18T10:23:28;103146.14;;;-0.36;87.98
54628;BME280;40525;55.926;21.066;2022-12-18T10:26:08;103140.80;;;-0.18;87.37
54628;BME280;40525;55.926;21.066;2022-12-18T10:28:38;103150.97;;;-0.01;87.28
54628;BME280;40525;55.926;21.066;2022-12-18T10:31:20;103135.09;;;0.14;87.18
54628;BME280;40525;55.926;21.066;2022-12-18T10:33:47;103151.99;;;0.27;86.74
54628;BME280;40525;55.926;21.066;2022-12-18T10:36:13;103183.69;;;0.43;87.55
54628;BME280;40525;55.926;21.066;2022-12-18T10:38:40;103160.51;;;0.60;87.56
54628;BME280;40525;55.926;21.066;2022-12-18T10:44:15;103165.05;;;0.78;86.04
54628;BME280;40525;55.926;21.066;2022-12-18T10:46:50;103180.84;;;0.85;85.90
54628;BME280;40525;55.926;21.066;2022-12-18T10:49:29;103176.33;;;0.92;85.99
54628;BME280;40525;55.926;21.066;2022-12-18T10:52:19;103175.66;;;0.97;86.38
54628;BME280;40525;55.926;21.066;2022-12-18T10:54:57;103165.45;;;1.04;87.09
54628;BME280;40525;55.926;21.066;2022-12-18T10:57:32;103180.94;;;1.13;88.12
54628;BME280;40525;55.926;21.066;2022-12-18T11:00:23;103179.13;;;1.24;88.56
54628;BME280;40525;55.926;21.066;2022-12-18T11:02:51;103174.57;;;1.31;88.30
54628;BME280;40525;55.926;21.066;2022-12-18T11:07:59;103169.91;;;1.48;88.08
54628;BME280;40525;55.926;21.066;2022-12-18T11:10:28;103182.02;;;1.60;87.02
54628;BME280;40525;55.926;21.066;2022-12-18T11:13:23;103193.72;;;1.74;86.55
54628;BME280;40525;55.926;21.066;2022-12-18T11:15:52;103192.37;;;1.87;86.09
54628;BME280;40525;55.926;21.066;2022-12-18T11:20:59;103181.88;;;1.99;84.48
54628;BME280;40525;55.926;21.066;2022-12-18T11:23:28;103200.97;;;1.99;84.08
54628;BME280;40525;55.926;21.066;2022-12-18T11:25:57;103181.76;;;1.94;83.71
54628;BME280;40525;55.926;21.066;2022-12-18T11:28:35;103193.86;;;1.93;83.19
54628;BME280;40525;55.926;21.066;2022-12-18T11:31:24;103182.03;;;1.89;82.52
54628;BME280;40525;55.926;21.066;2022-12-18T11:34:11;103185.48;;;1.88;82.09
54628;BME280;40525;55.926;21.066;2022-12-18T11:36:45;103184.58;;;1.87;81.72
54628;BME280;40525;55.926;21.066;2022-12-18T11:39:37;103180.67;;;1.87;80.36
54628;BME280;40525;55.926;21.066;2022-12-18T11:42:12;103187.92;;;1.83;80.80
54628;BME280;40525;55.926;21.066;2022-12-18T11:44:52;103194.33;;;1.80;79.07
54628;BME280;40525;55.926;21.066;2022-12-18T11:50:43;103205.08;;;1.77;77.58
54628;BME280;40525;55.926;21.066;2022-12-18T11:53:12;103192.08;;;1.77;77.69
54628;BME280;40525;55.926;21.066;2022-12-18T12:01:33;103194.57;;;1.73;76.56
54628;BME280;40525;55.926;21.066;2022-12-18T12:07:18;103199.87;;;1.77;76.59
54628;BME280;40525;55.926;21.066;2022-12-18T12:12:51;103199.83;;;1.75;76.60
54628;BME280;40525;55.926;21.066;2022-12-18T12:15:28;103212.91;;;1.78;76.49
54628;BME280;40525;55.926;21.066;2022-12-18T12:21:16;103214.20;;;1.78;76.81
54628;BME280;40525;55.926;21.066;2022-12-18T12:29:39;103266.77;;;1.81;75.55
54628;BME280;40525;55.926;21.066;2022-12-18T12:32:41;103220.39;;;1.82;75.86
54628;BME280;40525;55.926;21.066;2022-12-18T12:38:16;103200.88;;;1.82;75.93
54628;BME280;40525;55.926;21.066;2022-12-18T12:41:04;103210.91;;;1.84;76.35
54628;BME280;40525;55.926;21.066;2022-12-18T12:43:41;103216.17;;;1.85;76.11
54628;BME280;40525;55.926;21.066;2022-12-18T12:46:10;103229.73;;;1.89;76.42
54628;BME280;40525;55.926;21.066;2022-12-18T12:48:47;103222.14;;;1.95;76.76
54628;BME280;40525;55.926;21.066;2022-12-18T12:51:19;103239.61;;;2.00;76.79
54628;BME280;40525;55.926;21.066;2022-12-18T12:53:46;103216.74;;;2.04;76.86
54628;BME280;40525;55.926;21.066;2022-12-18T12:56:16;103207.63;;;2.04;76.85
54628;BME280;40525;55.926;21.066;2022-12-18T12:59:15;103207.45;;;1.98;75.61
54628;BME280;40525;55.926;21.066;2022-12-18T13:04:28;103223.56;;;2.00;75.96
54628;BME280;40525;55.926;21.066;2022-12-18T13:07:15;103245.63;;;1.99;75.42
54628;BME280;40525;55.926;21.066;2022-12-18T13:15:32;103239.87;;;1.94;75.04
54628;BME280;40525;55.926;21.066;2022-12-18T13:23:35;103236.53;;;1.84;74.49
54628;BME280;40525;55.926;21.066;2022-12-18T13:28:53;103227.43;;;1.84;74.00
54628;BME280;40525;55.926;21.066;2022-12-18T13:34:22;103231.17;;;1.80;74.21
54628;BME280;40525;55.926;21.066;2022-12-18T13:36:52;103218.59;;;1.79;73.29
54628;BME280;40525;55.926;21.066;2022-12-18T13:39:22;103218.48;;;1.76;73.41
54628;BME280;40525;55.926;21.066;2022-12-18T13:44:37;103217.55;;;1.74;74.50
54628;BME280;40525;55.926;21.066;2022-12-18T13:50:03;103234.83;;;1.72;74.98
54628;BME280;40525;55.926;21.066;2022-12-18T13:52:35;103238.17;;;1.68;74.77
54628;BME280;40525;55.926;21.066;2022-12-18T13:55:06;103231.19;;;1.67;74.69
54628;BME280;40525;55.926;21.066;2022-12-18T13:57:37;103268.03;;;1.66;74.59
54628;BME280;40525;55.926;21.066;2022-12-18T14:00:26;103219.78;;;1.62;73.80
54628;BME280;40525;55.926;21.066;2022-12-18T14:02:56;103228.88;;;1.62;74.00
54628;BME280;40525;55.926;21.066;2022-12-18T14:05:29;103231.42;;;1.60;74.53
54628;BME280;40525;55.926;21.066;2022-12-18T14:08:05;103237.92;;;1.60;74.58
54628;BME280;40525;55.926;21.066;2022-12-18T14:10:35;103237.88;;;1.59;74.57
54628;BME280;40525;55.926;21.066;2022-12-18T14:13:07;103249.20;;;1.61;74.35
54628;BME280;40525;55.926;21.066;2022-12-18T14:15:41;103244.86;;;1.60;75.04
54628;BME280;40525;55.926;21.066;2022-12-18T14:21:22;103248.39;;;1.62;74.76
54628;BME280;40525;55.926;21.066;2022-12-18T14:26:41;103241.89;;;1.62;74.78
54628;BME280;40525;55.926;21.066;2022-12-18T14:29:29;103247.48;;;1.61;74.86
54628;BME280;40525;55.926;21.066;2022-12-18T14:32:16;103251.44;;;1.63;74.77
54628;BME280;40525;55.926;21.066;2022-12-18T14:37:26;103251.44;;;1.63;75.09